sensor_id;sensor_type;location;lat;lon;timestamp;P1;durP1;ratioP1;P2;durP2;ratioP2
22679;SDS011;11507;44.858;10.374;2023-11-22T00:05:03;76.63;;;39.17;;
22679;SDS011;11507;44.858;10.374;2023-11-22T00:07:31;77.57;;;39.20;;
22679;SDS011;11507;44.858;10.374;2023-11-22T00:09:57;82.95;;;41.00;;
22679;SDS011;11507;44.858;10.374;2023-11-22T00:12:23;71.43;;;38.83;;
22679;SDS011;11507;44.858;10.374;2023-11-22T00:14:50;74.32;;;39.05;;
22679;SDS011;11507;44.858;10.374;2023-11-22T00:17:17;73.72;;;37.90;;
22679;SDS011;11507;44.858;10.374;2023-11-22T00:19:44;73.65;;;37.75;;
22679;SDS011;11507;44.858;10.374;2023-11-22T00:22:10;79.05;;;40.00;;
22679;SDS011;11507;44.858;10.374;2023-11-22T00:24:41;83.82;;;43.42;;
22679;SDS011;11507;44.858;10.374;2023-11-22T00:27:07;76.88;;;42.70;;
22679;SDS011;11507;44.858;10.374;2023-11-22T00:29:35;83.93;;;43.38;;
22679;SDS011;11507;44.858;10.374;2023-11-22T00:32:01;88.95;;;44.92;;
22679;SDS011;11507;44.858;10.374;2023-11-22T00:34:27;89.75;;;45.47;;
22679;SDS011;11507;44.858;10.374;2023-11-22T00:36:53;86.50;;;44.00;;
22679;SDS011;11507;44.858;10.374;2023-11-22T00:39:20;81.35;;;42.25;;
22679;SDS011;11507;44.858;10.374;2023-11-22T00:41:47;82.80;;;41.38;;
22679;SDS011;11507;44.858;10.374;2023-11-22T00:44:14;80.07;;;42.60;;
22679;SDS011;11507;44.858;10.374;2023-11-22T00:46:40;73.95;;;40.00;;
22679;SDS011;11507;44.858;10.374;2023-11-22T00:49:07;70.28;;;39.30;;
22679;SDS011;11507;44.858;10.374;2023-11-22T00:51:36;79.65;;;40.58;;
22679;SDS011;11507;44.858;10.374;2023-11-22T00:54:03;73.93;;;40.72;;
22679;SDS011;11507;44.858;10.374;2023-11-22T00:56:29;87.72;;;43.10;;
22679;SDS011;11507;44.858;10.374;2023-11-22T01:01:22;92.38;;;45.83;;
22679;SDS011;11507;44.858;10.374;2023-11-22T01:06:14;80.07;;;41.50;;
22679;SDS011;11507;44.858;10.374;2023-11-22T01:08:40;86.30;;;43.85;;
22679;SDS011;11507;44.858;10.374;2023-11-22T01:11:08;87.10;;;43.42;;
22679;SDS011;11507;44.858;10.374;2023-11-22T01:16:09;88.70;;;44.17;;
22679;SDS011;11507;44.858;10.374;2023-11-22T01:18:36;78.53;;;41.80;;
22679;SDS011;11507;44.858;10.374;2023-11-22T01:21:02;81.03;;;41.70;;
22679;SDS011;11507;44.858;10.374;2023-11-22T01:23:31;75.18;;;41.75;;
22679;SDS011;11507;44.858;10.374;2023-11-22T01:28:24;76.32;;;38.95;;
22679;SDS011;11507;44.858;10.374;2023-11-22T01:30:55;89.25;;;44.05;;
22679;SDS011;11507;44.858;10.374;2023-11-22T01:33:21;98.22;;;47.17;;
22679;SDS011;11507;44.858;10.374;2023-11-22T01:35:48;92.45;;;46.30;;
22679;SDS011;11507;44.858;10.374;2023-11-22T01:38:15;98.93;;;50.05;;
22679;SDS011;11507;44.858;10.374;2023-11-22T01:43:16;101.70;;;49.45;;
22679;SDS011;11507;44.858;10.374;2023-11-22T01:45:43;97.13;;;49.85;;
22679;SDS011;11507;44.858;10.374;2023-11-22T01:48:10;104.45;;;50.50;;
22679;SDS011;11507;44.858;10.374;2023-11-22T01:50:40;97.57;;;49.90;;
22679;SDS011;11507;44.858;10.374;2023-11-22T01:53:10;106.47;;;49.83;;
22679;SDS011;11507;44.858;10.374;2023-11-22T01:55:42;98.25;;;49.22;;
22679;SDS011;11507;44.858;10.374;2023-11-22T01:58:09;103.10;;;51.70;;
22679;SDS011;11507;44.858;10.374;2023-11-22T02:00:40;96.53;;;49.97;;
22679;SDS011;11507;44.858;10.374;2023-11-22T02:03:10;88.55;;;47.28;;
22679;SDS011;11507;44.858;10.374;2023-11-22T02:05:39;92.20;;;48.00;;
22679;SDS011;11507;44.858;10.374;2023-11-22T02:08:08;96.00;;;49.22;;
22679;SDS011;11507;44.858;10.374;2023-11-22T02:10:36;96.38;;;49.05;;
22679;SDS011;11507;44.858;10.374;2023-11-22T02:13:03;104.60;;;48.70;;
22679;SDS011;11507;44.858;10.374;2023-11-22T02:15:33;96.45;;;49.10;;
22679;SDS011;11507;44.858;10.374;2023-11-22T02:18:00;96.00;;;48.53;;
22679;SDS011;11507;44.858;10.374;2023-11-22T02:20:27;93.03;;;47.72;;
22679;SDS011;11507;44.858;10.374;2023-11-22T02:22:53;97.63;;;48.38;;
22679;SDS011;11507;44.858;10.374;2023-11-22T02:25:20;98.13;;;49.75;;
22679;SDS011;11507;44.858;10.374;2023-11-22T02:27:46;102.35;;;49.83;;
22679;SDS011;11507;44.858;10.374;2023-11-22T02:30:13;89.88;;;46.60;;
22679;SDS011;11507;44.858;10.374;2023-11-22T02:32:39;85.93;;;45.08;;
22679;SDS011;11507;44.858;10.374;2023-11-22T02:35:05;91.13;;;48.03;;
22679;SDS011;11507;44.858;10.374;2023-11-22T02:37:36;80.47;;;42.50;;
22679;SDS011;11507;44.858;10.374;2023-11-22T02:40:06;85.70;;;43.95;;
22679;SDS011;11507;44.858;10.374;2023-11-22T02:42:48;75.70;;;40.05;;
22679;SDS011;11507;44.858;10.374;2023-11-22T02:45:16;77.07;;;39.00;;
22679;SDS011;11507;44.858;10.374;2023-11-22T02:47:48;83.68;;;43.03;;
22679;SDS011;11507;44.858;10.374;2023-11-22T02:50:15;79.55;;;42.40;;
22679;SDS011;11507;44.858;10.374;2023-11-22T02:52:42;90.40;;;44.35;;
22679;SDS011;11507;44.858;10.374;2023-11-22T02:55:08;91.30;;;45.22;;
22679;SDS011;11507;44.858;10.374;2023-11-22T02:57:38;100.68;;;48.50;;
22679;SDS011;11507;44.858;10.374;2023-11-22T03:00:09;102.13;;;49.38;;
22679;SDS011;11507;44.858;10.374;2023-11-22T03:02:42;105.28;;;51.17;;
22679;SDS011;11507;44.858;10.374;2023-11-22T03:05:08;114.70;;;52.88;;
22679;SDS011;11507;44.858;10.374;2023-11-22T03:07:35;99.82;;;49.08;;
22679;SDS011;11507;44.858;10.374;2023-11-22T03:10:02;110.18;;;50.70;;
22679;SDS011;11507;44.858;10.374;2023-11-22T03:12:28;109.88;;;51.35;;
22679;SDS011;11507;44.858;10.374;2023-11-22T03:14:54;109.00;;;51.78;;
22679;SDS011;11507;44.858;10.374;2023-11-22T03:17:26;101.53;;;48.03;;
22679;SDS011;11507;44.858;10.374;2023-11-22T03:19:59;103.53;;;49.85;;
22679;SDS011;11507;44.858;10.374;2023-11-22T03:22:26;114.60;;;50.65;;
22679;SDS011;11507;44.858;10.374;2023-11-22T03:24:55;112.82;;;52.08;;
22679;SDS011;11507;44.858;10.374;2023-11-22T03:27:21;116.38;;;52.67;;
22679;SDS011;11507;44.858;10.374;2023-11-22T03:29:48;116.22;;;55.25;;
22679;SDS011;11507;44.858;10.374;2023-11-22T03:32:14;119.30;;;56.00;;
22679;SDS011;11507;44.858;10.374;2023-11-22T03:34:41;126.57;;;54.00;;
22679;SDS011;11507;44.858;10.374;2023-11-22T03:37:07;111.88;;;50.28;;
22679;SDS011;11507;44.858;10.374;2023-11-22T03:39:33;88.30;;;44.58;;
22679;SDS011;11507;44.858;10.374;2023-11-22T03:44:25;81.63;;;42.17;;
22679;SDS011;11507;44.858;10.374;2023-11-22T03:46:53;85.88;;;42.50;;
22679;SDS011;11507;44.858;10.374;2023-11-22T03:49:20;94.47;;;45.40;;
22679;SDS011;11507;44.858;10.374;2023-11-22T03:51:50;94.70;;;44.80;;
22679;SDS011;11507;44.858;10.374;2023-11-22T03:54:17;82.57;;;41.88;;
22679;SDS011;11507;44.858;10.374;2023-11-22T03:56:44;81.07;;;41.13;;
22679;SDS011;11507;44.858;10.374;2023-11-22T03:59:12;92.00;;;43.83;;
22679;SDS011;11507;44.858;10.374;2023-11-22T04:01:39;77.82;;;38.55;;
22679;SDS011;11507;44.858;10.374;2023-11-22T04:04:06;71.55;;;37.70;;
22679;SDS011;11507;44.858;10.374;2023-11-22T04:06:35;347.75;;;44.30;;
22679;SDS011;11507;44.858;10.374;2023-11-22T04:09:03;73.13;;;36.17;;
22679;SDS011;11507;44.858;10.374;2023-11-22T04:11:31;74.93;;;39.42;;
22679;SDS011;11507;44.858;10.374;2023-11-22T04:13:57;91.07;;;42.72;;
22679;SDS011;11507;44.858;10.374;2023-11-22T04:16:24;113.28;;;43.20;;
22679;SDS011;11507;44.858;10.374;2023-11-22T04:18:51;78.30;;;38.95;;
22679;SDS011;11507;44.858;10.374;2023-11-22T04:21:18;78.22;;;38.95;;
22679;SDS011;11507;44.858;10.374;2023-11-22T04:23:45;82.95;;;40.47;;
22679;SDS011;11507;44.858;10.374;2023-11-22T04:26:13;80.28;;;40.80;;
22679;SDS011;11507;44.858;10.374;2023-11-22T04:28:41;91.97;;;43.13;;
22679;SDS011;11507;44.858;10.374;2023-11-22T04:31:08;89.15;;;41.88;;
22679;SDS011;11507;44.858;10.374;2023-11-22T04:33:34;76.82;;;39.72;;
22679;SDS011;11507;44.858;10.374;2023-11-22T04:36:02;83.65;;;40.72;;
22679;SDS011;11507;44.858;10.374;2023-11-22T04:38:29;86.47;;;41.95;;
22679;SDS011;11507;44.858;10.374;2023-11-22T04:40:57;81.95;;;40.47;;
22679;SDS011;11507;44.858;10.374;2023-11-22T04:43:24;81.72;;;40.63;;
22679;SDS011;11507;44.858;10.374;2023-11-22T04:45:51;83.40;;;39.75;;
22679;SDS011;11507;44.858;10.374;2023-11-22T04:48:19;77.82;;;38.92;;
22679;SDS011;11507;44.858;10.374;2023-11-22T04:50:45;346.55;;;42.10;;
22679;SDS011;11507;44.858;10.374;2023-11-22T04:53:12;253.95;;;38.22;;
22679;SDS011;11507;44.858;10.374;2023-11-22T04:55:39;156.43;;;41.97;;
22679;SDS011;11507;44.858;10.374;2023-11-22T04:58:06;149.82;;;38.28;;
22679;SDS011;11507;44.858;10.374;2023-11-22T05:00:32;625.53;;;43.05;;
22679;SDS011;11507;44.858;10.374;2023-11-22T05:02:59;142.52;;;38.90;;
22679;SDS011;11507;44.858;10.374;2023-11-22T05:05:26;89.85;;;43.35;;
22679;SDS011;11507;44.858;10.374;2023-11-22T05:07:53;154.52;;;40.42;;
22679;SDS011;11507;44.858;10.374;2023-11-22T05:10:20;70.25;;;35.70;;
22679;SDS011;11507;44.858;10.374;2023-11-22T05:12:47;81.43;;;39.70;;
22679;SDS011;11507;44.858;10.374;2023-11-22T05:15:14;87.95;;;43.03;;
22679;SDS011;11507;44.858;10.374;2023-11-22T05:17:42;80.88;;;40.63;;
22679;SDS011;11507;44.858;10.374;2023-11-22T05:20:09;86.38;;;40.55;;
22679;SDS011;11507;44.858;10.374;2023-11-22T05:22:36;81.47;;;40.15;;
22679;SDS011;11507;44.858;10.374;2023-11-22T05:25:04;82.13;;;40.60;;
22679;SDS011;11507;44.858;10.374;2023-11-22T05:27:32;269.52;;;37.53;;
22679;SDS011;11507;44.858;10.374;2023-11-22T05:30:00;347.08;;;37.40;;
22679;SDS011;11507;44.858;10.374;2023-11-22T05:32:27;70.32;;;33.75;;
22679;SDS011;11507;44.858;10.374;2023-11-22T05:34:57;74.72;;;35.58;;
22679;SDS011;11507;44.858;10.374;2023-11-22T05:37:25;100.50;;;36.65;;
22679;SDS011;11507;44.858;10.374;2023-11-22T05:39:53;77.65;;;38.45;;
22679;SDS011;11507;44.858;10.374;2023-11-22T05:42:21;80.20;;;37.63;;
22679;SDS011;11507;44.858;10.374;2023-11-22T05:44:48;71.95;;;34.13;;
22679;SDS011;11507;44.858;10.374;2023-11-22T05:47:16;114.55;;;38.97;;
22679;SDS011;11507;44.858;10.374;2023-11-22T05:49:44;72.30;;;34.97;;
22679;SDS011;11507;44.858;10.374;2023-11-22T05:52:11;64.35;;;35.10;;
22679;SDS011;11507;44.858;10.374;2023-11-22T05:54:37;75.13;;;37.05;;
22679;SDS011;11507;44.858;10.374;2023-11-22T05:59:29;64.47;;;32.40;;
22679;SDS011;11507;44.858;10.374;2023-11-22T06:01:56;86.65;;;41.58;;
22679;SDS011;11507;44.858;10.374;2023-11-22T06:04:22;68.57;;;36.13;;
22679;SDS011;11507;44.858;10.374;2023-11-22T06:09:14;70.53;;;33.40;;
22679;SDS011;11507;44.858;10.374;2023-11-22T06:14:06;89.65;;;37.72;;
22679;SDS011;11507;44.858;10.374;2023-11-22T06:18:58;65.88;;;35.53;;
22679;SDS011;11507;44.858;10.374;2023-11-22T06:23:52;68.93;;;39.25;;
22679;SDS011;11507;44.858;10.374;2023-11-22T06:26:21;67.13;;;36.90;;
22679;SDS011;11507;44.858;10.374;2023-11-22T06:28:47;66.93;;;35.22;;
22679;SDS011;11507;44.858;10.374;2023-11-22T06:31:14;61.38;;;31.38;;
22679;SDS011;11507;44.858;10.374;2023-11-22T06:33:41;63.72;;;33.75;;
22679;SDS011;11507;44.858;10.374;2023-11-22T06:36:07;64.45;;;31.10;;
22679;SDS011;11507;44.858;10.374;2023-11-22T06:38:36;61.53;;;31.95;;
22679;SDS011;11507;44.858;10.374;2023-11-22T06:41:03;65.05;;;31.80;;
22679;SDS011;11507;44.858;10.374;2023-11-22T06:43:29;58.40;;;31.48;;
22679;SDS011;11507;44.858;10.374;2023-11-22T06:45:55;82.32;;;33.08;;
22679;SDS011;11507;44.858;10.374;2023-11-22T06:48:21;63.63;;;32.45;;
22679;SDS011;11507;44.858;10.374;2023-11-22T06:50:47;60.63;;;32.40;;
22679;SDS011;11507;44.858;10.374;2023-11-22T06:53:14;59.03;;;30.70;;
22679;SDS011;11507;44.858;10.374;2023-11-22T06:55:41;68.80;;;33.35;;
22679;SDS011;11507;44.858;10.374;2023-11-22T06:58:08;71.07;;;32.80;;
22679;SDS011;11507;44.858;10.374;2023-11-22T07:00:35;64.05;;;32.30;;
22679;SDS011;11507;44.858;10.374;2023-11-22T07:03:02;60.10;;;31.63;;
22679;SDS011;11507;44.858;10.374;2023-11-22T07:05:29;55.80;;;29.25;;
22679;SDS011;11507;44.858;10.374;2023-11-22T07:07:55;53.90;;;28.40;;
22679;SDS011;11507;44.858;10.374;2023-11-22T07:10:22;54.70;;;29.35;;
22679;SDS011;11507;44.858;10.374;2023-11-22T07:12:49;54.58;;;28.33;;
22679;SDS011;11507;44.858;10.374;2023-11-22T07:15:16;58.20;;;30.27;;
22679;SDS011;11507;44.858;10.374;2023-11-22T07:17:42;55.08;;;29.27;;
22679;SDS011;11507;44.858;10.374;2023-11-22T07:20:09;58.47;;;31.08;;
22679;SDS011;11507;44.858;10.374;2023-11-22T07:22:41;52.90;;;29.63;;
22679;SDS011;11507;44.858;10.374;2023-11-22T07:25:08;57.38;;;30.85;;
22679;SDS011;11507;44.858;10.374;2023-11-22T07:27:46;57.83;;;30.13;;
22679;SDS011;11507;44.858;10.374;2023-11-22T07:30:13;54.25;;;28.50;;
22679;SDS011;11507;44.858;10.374;2023-11-22T07:32:41;71.60;;;34.30;;
22679;SDS011;11507;44.858;10.374;2023-11-22T07:35:07;66.72;;;34.40;;
22679;SDS011;11507;44.858;10.374;2023-11-22T07:37:34;59.42;;;32.00;;
22679;SDS011;11507;44.858;10.374;2023-11-22T07:40:09;77.67;;;36.10;;
22679;SDS011;11507;44.858;10.374;2023-11-22T07:42:39;84.50;;;38.78;;
22679;SDS011;11507;44.858;10.374;2023-11-22T07:45:09;79.40;;;37.42;;
22679;SDS011;11507;44.858;10.374;2023-11-22T07:47:37;95.60;;;44.72;;
22679;SDS011;11507;44.858;10.374;2023-11-22T07:50:10;83.03;;;40.05;;
22679;SDS011;11507;44.858;10.374;2023-11-22T07:52:39;89.22;;;39.72;;
22679;SDS011;11507;44.858;10.374;2023-11-22T07:55:07;81.38;;;39.50;;
22679;SDS011;11507;44.858;10.374;2023-11-22T07:57:34;81.90;;;39.03;;
22679;SDS011;11507;44.858;10.374;2023-11-22T08:00:00;87.35;;;38.80;;
22679;SDS011;11507;44.858;10.374;2023-11-22T08:02:37;91.90;;;39.33;;
22679;SDS011;11507;44.858;10.374;2023-11-22T08:05:08;96.00;;;41.70;;
22679;SDS011;11507;44.858;10.374;2023-11-22T08:07:35;95.68;;;42.17;;
22679;SDS011;11507;44.858;10.374;2023-11-22T08:10:07;89.90;;;42.50;;
22679;SDS011;11507;44.858;10.374;2023-11-22T08:12:47;91.78;;;43.05;;
22679;SDS011;11507;44.858;10.374;2023-11-22T08:15:16;91.55;;;43.42;;
22679;SDS011;11507;44.858;10.374;2023-11-22T08:17:45;95.63;;;44.05;;
22679;SDS011;11507;44.858;10.374;2023-11-22T08:22:39;94.15;;;44.10;;
22679;SDS011;11507;44.858;10.374;2023-11-22T08:25:09;89.60;;;43.95;;
22679;SDS011;11507;44.858;10.374;2023-11-22T08:27:38;85.38;;;41.95;;
22679;SDS011;11507;44.858;10.374;2023-11-22T08:30:07;83.30;;;41.35;;
22679;SDS011;11507;44.858;10.374;2023-11-22T08:32:41;81.53;;;41.80;;
22679;SDS011;11507;44.858;10.374;2023-11-22T08:35:08;77.38;;;41.53;;
22679;SDS011;11507;44.858;10.374;2023-11-22T08:37:40;74.90;;;40.92;;
22679;SDS011;11507;44.858;10.374;2023-11-22T08:40:07;68.43;;;38.15;;
22679;SDS011;11507;44.858;10.374;2023-11-22T08:42:36;64.53;;;36.30;;
22679;SDS011;11507;44.858;10.374;2023-11-22T08:45:03;74.38;;;37.53;;
22679;SDS011;11507;44.858;10.374;2023-11-22T08:47:29;60.97;;;35.03;;
22679;SDS011;11507;44.858;10.374;2023-11-22T08:49:56;53.38;;;31.25;;
22679;SDS011;11507;44.858;10.374;2023-11-22T08:52:23;56.65;;;32.72;;
22679;SDS011;11507;44.858;10.374;2023-11-22T08:54:50;54.15;;;31.83;;
22679;SDS011;11507;44.858;10.374;2023-11-22T08:57:18;52.67;;;31.52;;
22679;SDS011;11507;44.858;10.374;2023-11-22T08:59:47;49.83;;;30.70;;
22679;SDS011;11507;44.858;10.374;2023-11-22T09:02:15;49.50;;;28.77;;
22679;SDS011;11507;44.858;10.374;2023-11-22T09:04:49;51.88;;;31.15;;
22679;SDS011;11507;44.858;10.374;2023-11-22T09:07:15;47.08;;;29.40;;
22679;SDS011;11507;44.858;10.374;2023-11-22T09:09:47;46.67;;;29.17;;
22679;SDS011;11507;44.858;10.374;2023-11-22T09:12:13;44.72;;;27.35;;
22679;SDS011;11507;44.858;10.374;2023-11-22T09:14:40;44.25;;;27.05;;
22679;SDS011;11507;44.858;10.374;2023-11-22T09:17:09;44.00;;;24.75;;
22679;SDS011;11507;44.858;10.374;2023-11-22T09:19:36;37.22;;;24.80;;
22679;SDS011;11507;44.858;10.374;2023-11-22T09:22:03;45.15;;;24.95;;
22679;SDS011;11507;44.858;10.374;2023-11-22T09:24:32;39.70;;;24.10;;
22679;SDS011;11507;44.858;10.374;2023-11-22T09:26:58;36.85;;;24.17;;
22679;SDS011;11507;44.858;10.374;2023-11-22T09:29:26;32.28;;;21.10;;
22679;SDS011;11507;44.858;10.374;2023-11-22T09:31:52;33.65;;;22.38;;
22679;SDS011;11507;44.858;10.374;2023-11-22T09:34:18;32.75;;;21.67;;
22679;SDS011;11507;44.858;10.374;2023-11-22T09:36:45;33.28;;;22.08;;
22679;SDS011;11507;44.858;10.374;2023-11-22T09:39:13;37.28;;;22.60;;
22679;SDS011;11507;44.858;10.374;2023-11-22T09:41:39;32.33;;;21.15;;
22679;SDS011;11507;44.858;10.374;2023-11-22T09:44:06;35.00;;;22.23;;
22679;SDS011;11507;44.858;10.374;2023-11-22T09:46:36;33.38;;;20.98;;
22679;SDS011;11507;44.858;10.374;2023-11-22T09:49:03;32.38;;;21.35;;
22679;SDS011;11507;44.858;10.374;2023-11-22T09:51:33;29.73;;;20.42;;
22679;SDS011;11507;44.858;10.374;2023-11-22T09:54:04;30.13;;;20.77;;
22679;SDS011;11507;44.858;10.374;2023-11-22T09:56:33;31.05;;;21.45;;
22679;SDS011;11507;44.858;10.374;2023-11-22T09:59:03;30.90;;;20.25;;
22679;SDS011;11507;44.858;10.374;2023-11-22T10:01:32;29.30;;;20.63;;
22679;SDS011;11507;44.858;10.374;2023-11-22T10:04:02;29.17;;;20.60;;
22679;SDS011;11507;44.858;10.374;2023-11-22T10:06:31;28.27;;;20.33;;
22679;SDS011;11507;44.858;10.374;2023-11-22T10:09:03;28.55;;;20.70;;
22679;SDS011;11507;44.858;10.374;2023-11-22T10:11:36;27.65;;;20.52;;
22679;SDS011;11507;44.858;10.374;2023-11-22T10:14:05;26.88;;;19.38;;
22679;SDS011;11507;44.858;10.374;2023-11-22T10:16:31;30.85;;;21.02;;
22679;SDS011;11507;44.858;10.374;2023-11-22T10:18:58;28.10;;;20.02;;
22679;SDS011;11507;44.858;10.374;2023-11-22T10:21:24;26.25;;;19.55;;
22679;SDS011;11507;44.858;10.374;2023-11-22T10:23:54;29.98;;;24.75;;
22679;SDS011;11507;44.858;10.374;2023-11-22T10:26:21;28.58;;;20.42;;
22679;SDS011;11507;44.858;10.374;2023-11-22T10:28:52;27.10;;;20.38;;
22679;SDS011;11507;44.858;10.374;2023-11-22T10:31:19;27.35;;;18.50;;
22679;SDS011;11507;44.858;10.374;2023-11-22T10:33:47;27.15;;;20.17;;
22679;SDS011;11507;44.858;10.374;2023-11-22T10:36:14;25.60;;;19.38;;
22679;SDS011;11507;44.858;10.374;2023-11-22T10:38:41;25.13;;;20.08;;
22679;SDS011;11507;44.858;10.374;2023-11-22T10:41:11;26.75;;;19.85;;
22679;SDS011;11507;44.858;10.374;2023-11-22T10:43:39;23.92;;;18.80;;
22679;SDS011;11507;44.858;10.374;2023-11-22T10:46:07;25.88;;;20.60;;
22679;SDS011;11507;44.858;10.374;2023-11-22T10:48:37;27.15;;;22.33;;
22679;SDS011;11507;44.858;10.374;2023-11-22T10:51:05;36.45;;;27.55;;
22679;SDS011;11507;44.858;10.374;2023-11-22T10:53:35;25.40;;;19.90;;
22679;SDS011;11507;44.858;10.374;2023-11-22T10:58:46;23.45;;;18.42;;
22679;SDS011;11507;44.858;10.374;2023-11-22T11:01:21;23.45;;;18.40;;
22679;SDS011;11507;44.858;10.374;2023-11-22T11:04:01;23.35;;;18.10;;
22679;SDS011;11507;44.858;10.374;2023-11-22T11:06:33;23.33;;;19.25;;
22679;SDS011;11507;44.858;10.374;2023-11-22T11:09:02;21.50;;;16.40;;
22679;SDS011;11507;44.858;10.374;2023-11-22T11:11:37;25.95;;;17.52;;
22679;SDS011;11507;44.858;10.374;2023-11-22T11:14:05;21.95;;;17.00;;
22679;SDS011;11507;44.858;10.374;2023-11-22T11:16:38;22.65;;;17.52;;
22679;SDS011;11507;44.858;10.374;2023-11-22T11:19:17;21.45;;;15.88;;
22679;SDS011;11507;44.858;10.374;2023-11-22T11:21:45;19.48;;;14.20;;
22679;SDS011;11507;44.858;10.374;2023-11-22T11:24:17;16.13;;;12.70;;
22679;SDS011;11507;44.858;10.374;2023-11-22T11:26:48;17.15;;;13.77;;
22679;SDS011;11507;44.858;10.374;2023-11-22T11:29:31;16.35;;;12.82;;
22679;SDS011;11507;44.858;10.374;2023-11-22T11:32:03;16.55;;;13.32;;
22679;SDS011;11507;44.858;10.374;2023-11-22T11:34:32;14.52;;;11.80;;
22679;SDS011;11507;44.858;10.374;2023-11-22T11:37:08;14.50;;;11.50;;
22679;SDS011;11507;44.858;10.374;2023-11-22T11:39:41;13.80;;;10.93;;
22679;SDS011;11507;44.858;10.374;2023-11-22T11:42:10;15.98;;;11.85;;
22679;SDS011;11507;44.858;10.374;2023-11-22T11:47:37;14.90;;;11.70;;
22679;SDS011;11507;44.858;10.374;2023-11-22T11:50:10;14.73;;;12.07;;
22679;SDS011;11507;44.858;10.374;2023-11-22T11:52:41;14.27;;;11.88;;
22679;SDS011;11507;44.858;10.374;2023-11-22T11:55:09;14.82;;;11.13;;
22679;SDS011;11507;44.858;10.374;2023-11-22T11:57:37;12.30;;;10.50;;
22679;SDS011;11507;44.858;10.374;2023-11-22T12:00:09;13.20;;;9.93;;
22679;SDS011;11507;44.858;10.374;2023-11-22T12:02:40;12.02;;;10.60;;
22679;SDS011;11507;44.858;10.374;2023-11-22T12:05:14;13.90;;;11.07;;
22679;SDS011;11507;44.858;10.374;2023-11-22T12:07:47;14.25;;;10.93;;
22679;SDS011;11507;44.858;10.374;2023-11-22T12:10:15;14.48;;;10.13;;
22679;SDS011;11507;44.858;10.374;2023-11-22T12:12:45;14.13;;;10.60;;
22679;SDS011;11507;44.858;10.374;2023-11-22T12:15:15;13.25;;;11.13;;
22679;SDS011;11507;44.858;10.374;2023-11-22T12:17:48;12.38;;;10.02;;
22679;SDS011;11507;44.858;10.374;2023-11-22T12:20:23;11.52;;;9.60;;
22679;SDS011;11507;44.858;10.374;2023-11-22T12:23:01;12.02;;;9.48;;
22679;SDS011;11507;44.858;10.374;2023-11-22T12:25:39;11.57;;;9.63;;
22679;SDS011;11507;44.858;10.374;2023-11-22T12:28:12;10.80;;;9.15;;
22679;SDS011;11507;44.858;10.374;2023-11-22T12:30:40;12.27;;;10.00;;
22679;SDS011;11507;44.858;10.374;2023-11-22T12:33:10;12.40;;;9.13;;
22679;SDS011;11507;44.858;10.374;2023-11-22T12:35:46;11.57;;;9.10;;
22679;SDS011;11507;44.858;10.374;2023-11-22T12:38:17;12.98;;;8.93;;
22679;SDS011;11507;44.858;10.374;2023-11-22T12:40:45;12.05;;;9.63;;
22679;SDS011;11507;44.858;10.374;2023-11-22T12:43:14;10.45;;;9.35;;
22679;SDS011;11507;44.858;10.374;2023-11-22T12:45:41;11.18;;;8.75;;
22679;SDS011;11507;44.858;10.374;2023-11-22T12:48:30;11.93;;;8.10;;
22679;SDS011;11507;44.858;10.374;2023-11-22T12:51:00;11.02;;;8.85;;
22679;SDS011;11507;44.858;10.374;2023-11-22T12:53:27;9.82;;;8.30;;
22679;SDS011;11507;44.858;10.374;2023-11-22T12:55:57;11.60;;;8.25;;
22679;SDS011;11507;44.858;10.374;2023-11-22T12:58:26;10.40;;;7.88;;
22679;SDS011;11507;44.858;10.374;2023-11-22T13:01:00;9.43;;;7.22;;
22679;SDS011;11507;44.858;10.374;2023-11-22T13:03:31;11.98;;;7.93;;
22679;SDS011;11507;44.858;10.374;2023-11-22T13:05:58;10.63;;;7.72;;
22679;SDS011;11507;44.858;10.374;2023-11-22T13:08:25;11.35;;;8.32;;
22679;SDS011;11507;44.858;10.374;2023-11-22T13:10:56;10.63;;;9.10;;
22679;SDS011;11507;44.858;10.374;2023-11-22T13:13:25;10.23;;;8.10;;
22679;SDS011;11507;44.858;10.374;2023-11-22T13:15:53;12.15;;;8.35;;
22679;SDS011;11507;44.858;10.374;2023-11-22T13:18:20;9.63;;;7.93;;
22679;SDS011;11507;44.858;10.374;2023-11-22T13:20:50;11.10;;;8.25;;
22679;SDS011;11507;44.858;10.374;2023-11-22T13:23:26;9.48;;;7.40;;
22679;SDS011;11507;44.858;10.374;2023-11-22T13:25:54;11.05;;;8.10;;
22679;SDS011;11507;44.858;10.374;2023-11-22T13:28:20;10.75;;;7.90;;
22679;SDS011;11507;44.858;10.374;2023-11-22T13:30:47;10.65;;;7.85;;
22679;SDS011;11507;44.858;10.374;2023-11-22T13:33:17;10.73;;;7.72;;
22679;SDS011;11507;44.858;10.374;2023-11-22T13:35:45;12.32;;;8.55;;
22679;SDS011;11507;44.858;10.374;2023-11-22T13:38:12;9.82;;;8.00;;
22679;SDS011;11507;44.858;10.374;2023-11-22T13:40:41;9.68;;;7.63;;
22679;SDS011;11507;44.858;10.374;2023-11-22T13:43:11;10.50;;;8.10;;
22679;SDS011;11507;44.858;10.374;2023-11-22T13:45:40;10.40;;;8.35;;
22679;SDS011;11507;44.858;10.374;2023-11-22T13:48:07;9.93;;;8.10;;
22679;SDS011;11507;44.858;10.374;2023-11-22T13:50:35;11.48;;;8.50;;
22679;SDS011;11507;44.858;10.374;2023-11-22T13:53:03;11.43;;;8.82;;
22679;SDS011;11507;44.858;10.374;2023-11-22T13:55:30;13.27;;;8.02;;
22679;SDS011;11507;44.858;10.374;2023-11-22T13:57:57;10.90;;;8.48;;
22679;SDS011;11507;44.858;10.374;2023-11-22T14:00:26;11.75;;;8.40;;
22679;SDS011;11507;44.858;10.374;2023-11-22T14:02:58;12.45;;;8.55;;
22679;SDS011;11507;44.858;10.374;2023-11-22T14:05:31;12.35;;;8.70;;
22679;SDS011;11507;44.858;10.374;2023-11-22T14:08:02;13.50;;;8.85;;
22679;SDS011;11507;44.858;10.374;2023-11-22T14:10:29;12.82;;;8.43;;
22679;SDS011;11507;44.858;10.374;2023-11-22T14:12:55;14.15;;;8.63;;
22679;SDS011;11507;44.858;10.374;2023-11-22T14:15:26;14.55;;;9.10;;
22679;SDS011;11507;44.858;10.374;2023-11-22T14:17:56;14.15;;;8.90;;
22679;SDS011;11507;44.858;10.374;2023-11-22T14:20:22;14.35;;;8.60;;
22679;SDS011;11507;44.858;10.374;2023-11-22T14:22:51;14.57;;;9.35;;
22679;SDS011;11507;44.858;10.374;2023-11-22T14:25:20;15.13;;;8.93;;
22679;SDS011;11507;44.858;10.374;2023-11-22T14:27:47;15.13;;;9.00;;
22679;SDS011;11507;44.858;10.374;2023-11-22T14:30:20;17.15;;;9.68;;
22679;SDS011;11507;44.858;10.374;2023-11-22T14:32:47;15.93;;;9.10;;
22679;SDS011;11507;44.858;10.374;2023-11-22T14:35:13;19.98;;;9.85;;
22679;SDS011;11507;44.858;10.374;2023-11-22T14:37:40;15.38;;;9.98;;
22679;SDS011;11507;44.858;10.374;2023-11-22T14:40:16;15.32;;;10.10;;
22679;SDS011;11507;44.858;10.374;2023-11-22T14:42:46;20.98;;;10.50;;
22679;SDS011;11507;44.858;10.374;2023-11-22T14:45:18;14.93;;;10.00;;
22679;SDS011;11507;44.858;10.374;2023-11-22T14:47:48;15.93;;;10.18;;
22679;SDS011;11507;44.858;10.374;2023-11-22T14:50:17;15.73;;;9.82;;
22679;SDS011;11507;44.858;10.374;2023-11-22T14:52:45;16.63;;;10.27;;
22679;SDS011;11507;44.858;10.374;2023-11-22T14:55:14;17.08;;;10.32;;
22679;SDS011;11507;44.858;10.374;2023-11-22T14:57:43;16.67;;;10.05;;